Emerald Coast — WDC9127 — position and weather

sailwx.info

Track history (hours):
 
Tides and Currents Weather Stations Pressure Air Temp Water Temp Dewpoint Dewpoint Depression Visibility Wind Speed Wind Dir Waves Ship Positions

Emerald Coast

Owner: Dann Marine Towing, LC, Chesapeake City, MD. More information available from US FCC via Universal Licensing System and Coast Guard Vessel Documentation Center.

Last reported at 2016-Jul-01 04:30 UTC. Time now 2016-Jul-01 06:25 UTC.
Position N 40°42' W 074°08'.

Length 28 m; draft 3 m.

Type: Towing. MMSI: 367097920.

Date/timePositionNaut miles runAvg speedWind from/ knotsBaromVisibWave heightAir tempDewpointWater temp
2016-Jul-01 04:30N 40°42' W 074°08'0 0.0
2016-Jul-01 03:25N 40°42' W 074°08'0 0.0
2016-Jul-01 02:33N 40°42' W 074°08'0 0.0
2016-Jul-01 01:31N 40°42' W 074°08'0 0.0
2016-Jul-01 00:32N 40°42' W 074°08'0 0.0
2016-Jun-30 23:33N 40°42' W 074°08'1 1.0
2016-Jun-30 22:33N 40°41' W 074°09'2 0.5
2016-Jun-30 17:18N 40°38' W 074°07'2 2.4
2016-Jun-30 16:33N 40°39' W 074°05'2 1.8
2016-Jun-30 15:32N 40°38' W 074°07'0 0.0
2016-Jun-30 13:26N 40°38' W 074°07'0 0.0
2016-Jun-30 12:33N 40°38' W 074°07'0 0.0
2016-Jun-30 11:32N 40°38' W 074°07'1 1.1
2016-Jun-30 10:33N 40°38' W 074°09'2 1.7
2016-Jun-30 09:33N 40°40' W 074°08'1 1.2
2016-Jun-30 08:33N 40°41' W 074°09'0 0.0
2016-Jun-30 07:33N 40°41' W 074°09'0 0.0
2016-Jun-30 06:30N 40°41' W 074°09'0 0.0
2016-Jun-30 05:33N 40°41' W 074°09'0 0.0
2016-Jun-30 04:33N 40°41' W 074°09'1 1.2
2016-Jun-30 03:33N 40°40' W 074°08'2 1.5
2016-Jun-30 02:33N 40°39' W 074°09'3 2.9
2016-Jun-30 01:33N 40°39' W 074°05'2 1.5
2016-Jun-30 00:32N 40°39' W 074°07'0 0.0
2016-Jun-29 23:29N 40°39' W 074°07'0 0.0
2016-Jun-29 22:31N 40°39' W 074°07'0 0.0
2016-Jun-29 21:32N 40°39' W 074°07'0 0.0
2016-Jun-29 20:23N 40°39' W 074°07'1 0.8
2016-Jun-29 19:32N 40°39' W 074°06'2 2.1
2016-Jun-29 18:33N 40°40' W 074°09'0 0.1
2016-Jun-29 17:33N 40°40' W 074°09'3 2.6
2016-Jun-29 16:33N 40°39' W 074°05'2 2.0
2016-Jun-29 15:33N 40°40' W 074°03'1 0.7
2016-Jun-29 14:33N 40°40' W 074°03'4 1.3
2016-Jun-29 11:33N 40°40' W 074°09'1 1.3
2016-Jun-29 10:33N 40°39' W 074°08'2 1.7
2016-Jun-29 09:33N 40°39' W 074°06'1 1.1
2016-Jun-29 08:34N 40°39' W 074°05'4 3.6
2016-Jun-29 07:33N 40°40' W 074°00'5 4.8
2016-Jun-29 06:33N 40°39' W 074°06'4 3.5
2016-Jun-29 05:32N 40°39' W 074°11'3 3.1
2016-Jun-29 04:33N 40°39' W 074°07'0 0.2
2016-Jun-29 03:16N 40°39' W 074°07'1 2.0
2016-Jun-29 02:33N 40°39' W 074°05'1 1.4
2016-Jun-29 01:33N 40°40' W 074°04'0 0.0
2016-Jun-29 00:33N 40°40' W 074°04'0 0.0
2016-Jun-28 23:33N 40°40' W 074°04'1 1.3
2016-Jun-28 22:33N 40°40' W 074°03'2 1.9
2016-Jun-28 21:33N 40°40' W 074°00'1 1.2
2016-Jun-28 20:33N 40°40' W 074°02'4 3.4
2016-Jun-28 19:16N 40°39' W 074°07'0 0.4
2016-Jun-28 18:33N 40°39' W 074°07'4 3.7
2016-Jun-28 17:33N 40°41' W 074°03'2 1.7
2016-Jun-28 16:34N 40°41' W 074°01'0 0.0
2016-Jun-28 15:33N 40°41' W 074°01'0 0.0
2016-Jun-28 14:33N 40°41' W 074°01'0 0.0
2016-Jun-28 13:33N 40°41' W 074°01'0 0.0
2016-Jun-28 12:33N 40°41' W 074°01'1 1.1
2016-Jun-28 11:33N 40°40' W 074°01'0 0.1
2016-Jun-28 10:33N 40°40' W 074°00'0 0.0
2016-Jun-28 09:33N 40°40' W 074°00'0 0.0
2016-Jun-28 08:33N 40°40' W 074°00'0 0.0
2016-Jun-28 07:33N 40°40' W 074°00'0 0.0
2016-Jun-28 06:33N 40°40' W 074°00'0 0.0
2016-Jun-28 04:33N 40°40' W 074°00'0 0.0
2016-Jun-28 03:33N 40°40' W 074°00'0 0.0
2016-Jun-28 02:33N 40°40' W 074°00'0 0.0
2016-Jun-28 01:33N 40°40' W 074°00'0 0.0
2016-Jun-28 00:33N 40°40' W 074°00'0 0.2
2016-Jun-27 23:33N 40°40' W 074°00'6 5.5
2016-Jun-27 22:33N 40°39' W 074°07'1 0.5
2016-Jun-27 20:11N 40°38' W 074°09'5 7.3
2016-Jun-27 19:33N 40°40' W 074°03'2 2.2
2016-Jun-27 18:33N 40°39' W 074°06'3 3.2
2016-Jun-27 17:32N 40°39' W 074°10'1 1.5
2016-Jun-27 16:33N 40°40' W 074°09'2 1.3
2016-Jun-27 15:13N 40°39' W 074°07'0 0.0
2016-Jun-27 14:31N 40°39' W 074°07'0 0.0
2016-Jun-27 13:19N 40°39' W 074°07'0 0.0
2016-Jun-27 12:28N 40°39' W 074°07'1 1.6
2016-Jun-27 11:33N 40°39' W 074°09'1 1.2
2016-Jun-27 10:33N 40°39' W 074°08'0 0.3
2016-Jun-27 09:30N 40°38' W 074°07'0 0.0
2016-Jun-27 08:07N 40°38' W 074°07'0 0.2
2016-Jun-27 07:33N 40°39' W 074°07'5 5.3
2016-Jun-27 06:33N 40°40' W 074°00'3 3.4
2016-Jun-27 05:33N 40°39' W 074°05'4 3.9
2016-Jun-27 04:33N 40°41' W 074°09'0 0.1
2016-Jun-27 03:33N 40°41' W 074°09'0 0.0
2016-Jun-27 02:33N 40°41' W 074°09'0 0.0
2016-Jun-27 01:33N 40°41' W 074°09'0 0.0
2016-Jun-27 00:32N 40°41' W 074°09'0 0.4
2016-Jun-26 23:33N 40°41' W 074°09'1 0.9
2016-Jun-26 22:33N 40°42' W 074°09'0 0.0
2016-Jun-26 21:33N 40°42' W 074°09'0 0.0
2016-Jun-26 20:33N 40°42' W 074°09'0 0.0
2016-Jun-26 19:33N 40°42' W 074°09'1 1.4
2016-Jun-26 18:33N 40°43' W 074°07'2 1.5
2016-Jun-26 17:30N 40°41' W 074°08'0 0.4
2016-Jun-26 16:33N 40°42' W 074°08'3 2.9
2016-Jun-26 15:33N 40°39' W 074°07'0 0.1
2016-Jun-26 12:32N 40°39' W 074°07'0 0.0
2016-Jun-26 10:30N 40°38' W 074°07'0 0.0
2016-Jun-26 09:33N 40°39' W 074°07'0 0.0
2016-Jun-26 06:33N 40°39' W 074°07'0 0.0
2016-Jun-26 05:30N 40°39' W 074°07'0 0.0
2016-Jun-26 02:05N 40°39' W 074°07'0 0.0
2016-Jun-26 01:32N 40°39' W 074°07'0 0.0
2016-Jun-26 00:27N 40°38' W 074°07'0 0.0
2016-Jun-25 22:06N 40°39' W 074°07'0 0.0
2016-Jun-25 19:30N 40°38' W 074°07'1 1.5
2016-Jun-25 18:33N 40°39' W 074°05'1 1.5
2016-Jun-25 17:33N 40°39' W 074°07'0 0.0
2016-Jun-25 16:30N 40°39' W 074°07'0 0.0
2016-Jun-25 12:30N 40°39' W 074°07'3 2.8
2016-Jun-25 11:33N 40°40' W 074°04'1 1.1
2016-Jun-25 10:33N 40°39' W 074°05'2 2.2
2016-Jun-25 09:33N 40°39' W 074°02'2 1.8
2016-Jun-25 08:33N 40°40' W 074°00'5 5.2
2016-Jun-25 07:33N 40°39' W 074°07'0 0.0
2016-Jun-24 22:09N 40°39' W 074°07'1 2.4
2016-Jun-24 21:33N 40°39' W 074°05'1 1.4
2016-Jun-24 20:33N 40°40' W 074°04'0 0.0
2016-Jun-24 19:33N 40°40' W 074°04'0 0.0
2016-Jun-24 18:33N 40°40' W 074°04'0 0.0
2016-Jun-24 17:33N 40°40' W 074°04'0 0.0
2016-Jun-24 16:33N 40°40' W 074°04'0 0.1
2016-Jun-24 15:33N 40°40' W 074°04'2 2.3
2016-Jun-24 14:33N 40°38' W 074°04'0 0.0
2016-Jun-24 13:33N 40°38' W 074°04'0 0.1
2016-Jun-24 12:33N 40°38' W 074°04'0 0.2
2016-Jun-24 11:33N 40°37' W 074°04'0 0.0
2016-Jun-24 10:33N 40°37' W 074°04'0 0.0
2016-Jun-24 09:33N 40°37' W 074°04'0 0.0
2016-Jun-24 08:33N 40°37' W 074°04'0 0.0
2016-Jun-24 07:33N 40°37' W 074°04'3 0.9
2016-Jun-24 04:33N 40°40' W 074°04'0 0.0
2016-Jun-24 03:33N 40°40' W 074°04'0 0.0
2016-Jun-24 02:33N 40°40' W 074°04'0 0.0
2016-Jun-24 01:33N 40°40' W 074°04'0 0.0
2016-Jun-24 00:33N 40°40' W 074°04'0 0.0
2016-Jun-23 23:33N 40°40' W 074°04'0 0.0
2016-Jun-23 22:33N 40°40' W 074°04'2 1.7
2016-Jun-23 21:33N 40°39' W 074°06'1 0.5
2016-Jun-23 19:29N 40°39' W 074°07'6 6.0
2016-Jun-23 18:33N 40°41' W 074°01'2 1.7
2016-Jun-23 17:33N 40°41' W 074°03'0 0.0
2016-Jun-23 16:33N 40°41' W 074°03'0 0.0
2016-Jun-23 15:33N 40°41' W 074°03'0 0.0
2016-Jun-23 14:33N 40°41' W 074°03'0 0.1
2016-Jun-23 13:33N 40°40' W 074°03'1 0.9
2016-Jun-23 12:33N 40°40' W 074°04'4 3.9
2016-Jun-23 11:33N 40°39' W 074°09'0 0.3
2016-Jun-23 10:33N 40°40' W 074°09'1 0.1
2016-Jun-23 04:33N 40°40' W 074°08'2 1.8
2016-Jun-23 03:33N 40°39' W 074°07'3 2.9
2016-Jun-23 02:34N 40°39' W 074°04'0 0.3
2016-Jun-23 01:33N 40°39' W 074°04'4 4.0
2016-Jun-23 00:33N 40°41' W 074°08'0 0.4
2016-Jun-22 23:33N 40°41' W 074°09'0 0.4
2016-Jun-22 22:33N 40°41' W 074°08'2 2.2
2016-Jun-22 21:31N 40°39' W 074°07'0 0.0
2016-Jun-22 20:29N 40°39' W 074°07'0 0.0
2016-Jun-22 19:31N 40°39' W 074°07'0 0.0
2016-Jun-22 18:30N 40°39' W 074°07'0 0.0
2016-Jun-22 17:29N 40°39' W 074°07'0 0.0
2016-Jun-22 16:31N 40°39' W 074°07'0 0.0
2016-Jun-22 15:26N 40°39' W 074°07'2 1.7
2016-Jun-22 14:33N 40°39' W 074°05'1 0.6
2016-Jun-22 13:33N 40°39' W 074°04'4 3.9
2016-Jun-22 12:33N 40°41' W 074°09'0 0.4
2016-Jun-22 11:33N 40°41' W 074°09'0 0.3
2016-Jun-22 10:33N 40°41' W 074°09'0 0.0
2016-Jun-22 09:33N 40°41' W 074°09'0 0.0
2016-Jun-22 08:33N 40°41' W 074°09'2 1.7
2016-Jun-22 07:33N 40°40' W 074°09'3 2.6
2016-Jun-22 06:33N 40°39' W 074°05'2 0.2
2016-Jun-21 23:28N 40°39' W 074°07'1 0.9
2016-Jun-21 22:32N 40°39' W 074°06'1 0.2
2016-Jun-21 18:23N 40°39' W 074°07'2 2.8
2016-Jun-21 17:33N 40°40' W 074°04'3 3.1
2016-Jun-21 16:33N 40°41' W 074°01'0 0.0
2016-Jun-21 15:33N 40°41' W 074°01'0 0.0
2016-Jun-21 14:33N 40°41' W 074°01'0 0.0
2016-Jun-21 13:33N 40°41' W 074°01'0 0.0
2016-Jun-21 12:33N 40°41' W 074°01'0 0.0
2016-Jun-21 11:33N 40°41' W 074°01'1 0.8
2016-Jun-21 10:33N 40°41' W 074°02'2 2.1
2016-Jun-21 09:33N 40°40' W 074°04'0 0.0
2016-Jun-21 08:33N 40°40' W 074°04'2 2.1
2016-Jun-21 07:33N 40°39' W 074°06'  
Track history (hours):
 
Tides and Currents Weather Stations Pressure Air Temp Water Temp Dewpoint Dewpoint Depression Visibility Wind Speed Wind Dir Waves Ship Positions

Emerald Coast

Owner: Dann Marine Towing, LC, Chesapeake City, MD. More information available from US FCC via Universal Licensing System and Coast Guard Vessel Documentation Center.

Last reported at 2016-Jul-01 04:30 UTC. Time now 2016-Jul-01 06:25 UTC.
Position N 40°42' W 074°08'.

Length 28 m; draft 3 m.

Type: Towing. MMSI: 367097920.

Date/timePositionNaut miles runAvg speedWind from/ knotsBaromVisibWave heightAir tempDewpointWater temp
2016-Jul-01 04:30N 40°42' W 074°08'0 0.0
2016-Jul-01 03:25N 40°42' W 074°08'0 0.0
2016-Jul-01 02:33N 40°42' W 074°08'0 0.0
2016-Jul-01 01:31N 40°42' W 074°08'0 0.0
2016-Jul-01 00:32N 40°42' W 074°08'0 0.0
2016-Jun-30 23:33N 40°42' W 074°08'1 1.0
2016-Jun-30 22:33N 40°41' W 074°09'2 0.5
2016-Jun-30 17:18N 40°38' W 074°07'2 2.4
2016-Jun-30 16:33N 40°39' W 074°05'2 1.8
2016-Jun-30 15:32N 40°38' W 074°07'0 0.0
2016-Jun-30 13:26N 40°38' W 074°07'0 0.0
2016-Jun-30 12:33N 40°38' W 074°07'0 0.0
2016-Jun-30 11:32N 40°38' W 074°07'1 1.1
2016-Jun-30 10:33N 40°38' W 074°09'2 1.7
2016-Jun-30 09:33N 40°40' W 074°08'1 1.2
2016-Jun-30 08:33N 40°41' W 074°09'0 0.0
2016-Jun-30 07:33N 40°41' W 074°09'0 0.0
2016-Jun-30 06:30N 40°41' W 074°09'0 0.0
2016-Jun-30 05:33N 40°41' W 074°09'0 0.0
2016-Jun-30 04:33N 40°41' W 074°09'1 1.2
2016-Jun-30 03:33N 40°40' W 074°08'2 1.5
2016-Jun-30 02:33N 40°39' W 074°09'3 2.9
2016-Jun-30 01:33N 40°39' W 074°05'2 1.5
2016-Jun-30 00:32N 40°39' W 074°07'0 0.0
2016-Jun-29 23:29N 40°39' W 074°07'0 0.0
2016-Jun-29 22:31N 40°39' W 074°07'0 0.0
2016-Jun-29 21:32N 40°39' W 074°07'0 0.0
2016-Jun-29 20:23N 40°39' W 074°07'1 0.8
2016-Jun-29 19:32N 40°39' W 074°06'2 2.1
2016-Jun-29 18:33N 40°40' W 074°09'0 0.1
2016-Jun-29 17:33N 40°40' W 074°09'3 2.6
2016-Jun-29 16:33N 40°39' W 074°05'2 2.0
2016-Jun-29 15:33N 40°40' W 074°03'1 0.7
2016-Jun-29 14:33N 40°40' W 074°03'4 1.3
2016-Jun-29 11:33N 40°40' W 074°09'1 1.3
2016-Jun-29 10:33N 40°39' W 074°08'2 1.7
2016-Jun-29 09:33N 40°39' W 074°06'1 1.1
2016-Jun-29 08:34N 40°39' W 074°05'4 3.6
2016-Jun-29 07:33N 40°40' W 074°00'5 4.8
2016-Jun-29 06:33N 40°39' W 074°06'4 3.5
2016-Jun-29 05:32N 40°39' W 074°11'3 3.1
2016-Jun-29 04:33N 40°39' W 074°07'0 0.2
2016-Jun-29 03:16N 40°39' W 074°07'1 2.0
2016-Jun-29 02:33N 40°39' W 074°05'1 1.4
2016-Jun-29 01:33N 40°40' W 074°04'0 0.0
2016-Jun-29 00:33N 40°40' W 074°04'0 0.0
2016-Jun-28 23:33N 40°40' W 074°04'1 1.3
2016-Jun-28 22:33N 40°40' W 074°03'2 1.9
2016-Jun-28 21:33N 40°40' W 074°00'1 1.2
2016-Jun-28 20:33N 40°40' W 074°02'4 3.4
2016-Jun-28 19:16N 40°39' W 074°07'0 0.4
2016-Jun-28 18:33N 40°39' W 074°07'4 3.7
2016-Jun-28 17:33N 40°41' W 074°03'2 1.7
2016-Jun-28 16:34N 40°41' W 074°01'0 0.0
2016-Jun-28 15:33N 40°41' W 074°01'0 0.0
2016-Jun-28 14:33N 40°41' W 074°01'0 0.0
2016-Jun-28 13:33N 40°41' W 074°01'0 0.0
2016-Jun-28 12:33N 40°41' W 074°01'1 1.1
2016-Jun-28 11:33N 40°40' W 074°01'0 0.1
2016-Jun-28 10:33N 40°40' W 074°00'0 0.0
2016-Jun-28 09:33N 40°40' W 074°00'0 0.0
2016-Jun-28 08:33N 40°40' W 074°00'0 0.0
2016-Jun-28 07:33N 40°40' W 074°00'0 0.0
2016-Jun-28 06:33N 40°40' W 074°00'0 0.0
2016-Jun-28 04:33N 40°40' W 074°00'0 0.0
2016-Jun-28 03:33N 40°40' W 074°00'0 0.0
2016-Jun-28 02:33N 40°40' W 074°00'0 0.0
2016-Jun-28 01:33N 40°40' W 074°00'0 0.0
2016-Jun-28 00:33N 40°40' W 074°00'0 0.2
2016-Jun-27 23:33N 40°40' W 074°00'6 5.5
2016-Jun-27 22:33N 40°39' W 074°07'1 0.5
2016-Jun-27 20:11N 40°38' W 074°09'5 7.3
2016-Jun-27 19:33N 40°40' W 074°03'2 2.2
2016-Jun-27 18:33N 40°39' W 074°06'3 3.2
2016-Jun-27 17:32N 40°39' W 074°10'1 1.5
2016-Jun-27 16:33N 40°40' W 074°09'2 1.3
2016-Jun-27 15:13N 40°39' W 074°07'0 0.0
2016-Jun-27 14:31N 40°39' W 074°07'0 0.0
2016-Jun-27 13:19N 40°39' W 074°07'0 0.0
2016-Jun-27 12:28N 40°39' W 074°07'1 1.6
2016-Jun-27 11:33N 40°39' W 074°09'1 1.2
2016-Jun-27 10:33N 40°39' W 074°08'0 0.3
2016-Jun-27 09:30N 40°38' W 074°07'0 0.0
2016-Jun-27 08:07N 40°38' W 074°07'0 0.2
2016-Jun-27 07:33N 40°39' W 074°07'5 5.3
2016-Jun-27 06:33N 40°40' W 074°00'3 3.4
2016-Jun-27 05:33N 40°39' W 074°05'4 3.9
2016-Jun-27 04:33N 40°41' W 074°09'0 0.1
2016-Jun-27 03:33N 40°41' W 074°09'0 0.0
2016-Jun-27 02:33N 40°41' W 074°09'0 0.0
2016-Jun-27 01:33N 40°41' W 074°09'0 0.0
2016-Jun-27 00:32N 40°41' W 074°09'0 0.4
2016-Jun-26 23:33N 40°41' W 074°09'1 0.9
2016-Jun-26 22:33N 40°42' W 074°09'0 0.0
2016-Jun-26 21:33N 40°42' W 074°09'0 0.0
2016-Jun-26 20:33N 40°42' W 074°09'0 0.0
2016-Jun-26 19:33N 40°42' W 074°09'1 1.4
2016-Jun-26 18:33N 40°43' W 074°07'2 1.5
2016-Jun-26 17:30N 40°41' W 074°08'0 0.4
2016-Jun-26 16:33N 40°42' W 074°08'3 2.9
2016-Jun-26 15:33N 40°39' W 074°07'0 0.1
2016-Jun-26 12:32N 40°39' W 074°07'0 0.0
2016-Jun-26 10:30N 40°38' W 074°07'0 0.0
2016-Jun-26 09:33N 40°39' W 074°07'0 0.0
2016-Jun-26 06:33N 40°39' W 074°07'0 0.0
2016-Jun-26 05:30N 40°39' W 074°07'0 0.0
2016-Jun-26 02:05N 40°39' W 074°07'0 0.0
2016-Jun-26 01:32N 40°39' W 074°07'0 0.0
2016-Jun-26 00:27N 40°38' W 074°07'0 0.0
2016-Jun-25 22:06N 40°39' W 074°07'0 0.0
2016-Jun-25 19:30N 40°38' W 074°07'1 1.5
2016-Jun-25 18:33N 40°39' W 074°05'1 1.5
2016-Jun-25 17:33N 40°39' W 074°07'0 0.0
2016-Jun-25 16:30N 40°39' W 074°07'0 0.0
2016-Jun-25 12:30N 40°39' W 074°07'3 2.8
2016-Jun-25 11:33N 40°40' W 074°04'1 1.1
2016-Jun-25 10:33N 40°39' W 074°05'2 2.2
2016-Jun-25 09:33N 40°39' W 074°02'2 1.8
2016-Jun-25 08:33N 40°40' W 074°00'5 5.2
2016-Jun-25 07:33N 40°39' W 074°07'0 0.0
2016-Jun-24 22:09N 40°39' W 074°07'1 2.4
2016-Jun-24 21:33N 40°39' W 074°05'1 1.4
2016-Jun-24 20:33N 40°40' W 074°04'0 0.0
2016-Jun-24 19:33N 40°40' W 074°04'0 0.0
2016-Jun-24 18:33N 40°40' W 074°04'0 0.0
2016-Jun-24 17:33N 40°40' W 074°04'0 0.0
2016-Jun-24 16:33N 40°40' W 074°04'0 0.1
2016-Jun-24 15:33N 40°40' W 074°04'2 2.3
2016-Jun-24 14:33N 40°38' W 074°04'0 0.0
2016-Jun-24 13:33N 40°38' W 074°04'0 0.1
2016-Jun-24 12:33N 40°38' W 074°04'0 0.2
2016-Jun-24 11:33N 40°37' W 074°04'0 0.0
2016-Jun-24 10:33N 40°37' W 074°04'0 0.0
2016-Jun-24 09:33N 40°37' W 074°04'0 0.0
2016-Jun-24 08:33N 40°37' W 074°04'0 0.0
2016-Jun-24 07:33N 40°37' W 074°04'3 0.9
2016-Jun-24 04:33N 40°40' W 074°04'0 0.0
2016-Jun-24 03:33N 40°40' W 074°04'0 0.0
2016-Jun-24 02:33N 40°40' W 074°04'0 0.0
2016-Jun-24 01:33N 40°40' W 074°04'0 0.0
2016-Jun-24 00:33N 40°40' W 074°04'0 0.0
2016-Jun-23 23:33N 40°40' W 074°04'0 0.0
2016-Jun-23 22:33N 40°40' W 074°04'2 1.7
2016-Jun-23 21:33N 40°39' W 074°06'1 0.5
2016-Jun-23 19:29N 40°39' W 074°07'6 6.0
2016-Jun-23 18:33N 40°41' W 074°01'2 1.7
2016-Jun-23 17:33N 40°41' W 074°03'0 0.0
2016-Jun-23 16:33N 40°41' W 074°03'0 0.0
2016-Jun-23 15:33N 40°41' W 074°03'0 0.0
2016-Jun-23 14:33N 40°41' W 074°03'0 0.1
2016-Jun-23 13:33N 40°40' W 074°03'1 0.9
2016-Jun-23 12:33N 40°40' W 074°04'4 3.9
2016-Jun-23 11:33N 40°39' W 074°09'0 0.3
2016-Jun-23 10:33N 40°40' W 074°09'1 0.1
2016-Jun-23 04:33N 40°40' W 074°08'2 1.8
2016-Jun-23 03:33N 40°39' W 074°07'3 2.9
2016-Jun-23 02:34N 40°39' W 074°04'0 0.3
2016-Jun-23 01:33N 40°39' W 074°04'4 4.0
2016-Jun-23 00:33N 40°41' W 074°08'0 0.4
2016-Jun-22 23:33N 40°41' W 074°09'0 0.4
2016-Jun-22 22:33N 40°41' W 074°08'2 2.2
2016-Jun-22 21:31N 40°39' W 074°07'0 0.0
2016-Jun-22 20:29N 40°39' W 074°07'0 0.0
2016-Jun-22 19:31N 40°39' W 074°07'0 0.0
2016-Jun-22 18:30N 40°39' W 074°07'0 0.0
2016-Jun-22 17:29N 40°39' W 074°07'0 0.0
2016-Jun-22 16:31N 40°39' W 074°07'0 0.0
2016-Jun-22 15:26N 40°39' W 074°07'2 1.7
2016-Jun-22 14:33N 40°39' W 074°05'1 0.6
2016-Jun-22 13:33N 40°39' W 074°04'4 3.9
2016-Jun-22 12:33N 40°41' W 074°09'0 0.4
2016-Jun-22 11:33N 40°41' W 074°09'0 0.3
2016-Jun-22 10:33N 40°41' W 074°09'0 0.0
2016-Jun-22 09:33N 40°41' W 074°09'0 0.0
2016-Jun-22 08:33N 40°41' W 074°09'2 1.7
2016-Jun-22 07:33N 40°40' W 074°09'3 2.6
2016-Jun-22 06:33N 40°39' W 074°05'2 0.2
2016-Jun-21 23:28N 40°39' W 074°07'1 0.9
2016-Jun-21 22:32N 40°39' W 074°06'1 0.2
2016-Jun-21 18:23N 40°39' W 074°07'2 2.8
2016-Jun-21 17:33N 40°40' W 074°04'3 3.1
2016-Jun-21 16:33N 40°41' W 074°01'0 0.0
2016-Jun-21 15:33N 40°41' W 074°01'0 0.0
2016-Jun-21 14:33N 40°41' W 074°01'0 0.0
2016-Jun-21 13:33N 40°41' W 074°01'0 0.0
2016-Jun-21 12:33N 40°41' W 074°01'0 0.0
2016-Jun-21 11:33N 40°41' W 074°01'1 0.8
2016-Jun-21 10:33N 40°41' W 074°02'2 2.1
2016-Jun-21 09:33N 40°40' W 074°04'0 0.0
2016-Jun-21 08:33N 40°40' W 074°04'2 2.1
2016-Jun-21 07:33N 40°39' W 074°06'  

Dump ship's entire track history